Time;durP1;ratioP1;P1;durP2;ratioP2;P2;SDS_P1;SDS_P2;PMS_P1;PMS_P2;Temp;Humidity;BMP_temperature;BMP_pressure;BME280_temperature;BME280_humidity;BME280_pressure;Samples;Min_cycle;Max_cycle;Signal;HPM_P1;HPM_P2
2021/10/03 00:01:03;;;;;;;30.60;22.00;;;;;;;4.29;86.67;101873.73;1640602;85;21157;-70
2021/10/03 00:03:31;;;;;;;26.55;19.98;;;;;;;4.26;86.68;101876.23;1627871;87;21031;-70
2021/10/03 00:05:59;;;;;;;29.65;21.95;;;;;;;4.23;86.73;101884.02;1642472;85;21043;-70
2021/10/03 00:08:26;;;;;;;28.75;20.35;;;;;;;4.21;86.79;101879.91;1642478;87;21168;-70
2021/10/03 00:10:53;;;;;;;31.60;22.67;;;;;;;4.18;86.87;101878.47;1642687;85;21657;-71
2021/10/03 00:13:23;;;;;;;32.03;23.00;;;;;;;4.16;86.93;101883.62;1644287;85;21572;-70
2021/10/03 00:15:51;;;;;;;34.00;22.50;;;;;;;4.14;86.96;101878.49;1642650;85;21075;-71
2021/10/03 00:18:18;;;;;;;36.30;24.57;;;;;;;4.13;87.02;101878.69;1640509;85;21561;-71
2021/10/03 00:20:45;;;;;;;31.75;22.58;;;;;;;4.11;87.12;101886.78;1643713;85;22012;-70
2021/10/03 00:23:12;;;;;;;34.00;24.05;;;;;;;4.08;87.17;101882.36;1645277;87;21459;-70
2021/10/03 00:25:39;;;;;;;30.95;21.60;;;;;;;4.05;87.19;101882.25;1644000;85;22148;-70
2021/10/03 00:28:07;;;;;;;37.03;23.35;;;;;;;4.04;87.27;101881.91;1642397;85;21581;-71
2021/10/03 00:30:37;;;;;;;34.73;23.60;;;;;;;4.03;87.31;101889.53;1640929;85;21136;-70
2021/10/03 00:33:04;;;;;;;36.48;23.77;;;;;;;4.02;87.39;101884.44;1644461;85;21578;-70
2021/10/03 00:35:31;;;;;;;35.05;24.65;;;;;;;3.98;87.45;101887.91;1645026;85;21043;-71
2021/10/03 00:37:59;;;;;;;32.93;23.70;;;;;;;3.96;87.58;101891.25;1632043;85;21538;-70
2021/10/03 00:40:27;;;;;;;35.13;24.32;;;;;;;3.96;87.66;101892.58;1644785;87;21116;-70
2021/10/03 00:42:53;;;;;;;33.70;23.60;;;;;;;3.94;87.68;101896.70;1641967;85;21122;-70
2021/10/03 00:45:21;;;;;;;34.55;22.35;;;;;;;3.93;87.70;101892.94;1609021;87;21149;-70
2021/10/03 00:47:48;;;;;;;33.98;23.12;;;;;;;3.91;87.75;101888.31;1640057;85;21075;-70
2021/10/03 00:50:15;;;;;;;35.25;23.92;;;;;;;3.87;87.81;101889.18;1637598;85;21077;-70
2021/10/03 00:55:23;;;;;;;35.93;25.43;;;;;;;3.88;87.94;101890.00;1826600;77;22839;-70
2021/10/03 00:57:52;;;;;;;35.28;25.90;;;;;;;3.81;87.98;101883.28;1779484;78;21667;-69
2021/10/03 01:00:23;;;;;;;35.35;28.65;;;;;;;3.80;88.02;101880.33;1776977;78;21135;-69
2021/10/03 01:02:50;;;;;;;30.20;24.55;;;;;;;3.80;88.08;101882.97;1777690;78;20974;-69
2021/10/03 01:05:16;;;;;;;32.35;26.17;;;;;;;3.82;88.34;101880.14;1780961;80;21023;-69
2021/10/03 01:07:44;;;;;;;35.75;29.05;;;;;;;3.81;88.34;101883.28;1787896;78;21082;-69
2021/10/03 01:10:16;;;;;;;35.33;26.45;;;;;;;3.82;88.47;101884.95;1779594;78;21644;-70
2021/10/03 01:12:44;;;;;;;33.45;24.92;;;;;;;3.82;88.58;101884.95;1774360;78;21106;-70
2021/10/03 01:15:11;;;;;;;35.78;24.47;;;;;;;3.83;88.73;101883.12;1776183;78;20932;-70
2021/10/03 01:17:38;;;;;;;33.00;25.57;;;;;;;3.85;88.94;101885.06;1780322;78;21035;-69
2021/10/03 01:20:06;;;;;;;28.02;23.52;;;;;;;3.85;89.00;101887.23;1791585;78;21150;-70
2021/10/03 01:22:35;;;;;;;30.65;24.98;;;;;;;3.86;89.07;101886.23;1783095;78;21026;-71
2021/10/03 01:25:02;;;;;;;31.05;23.73;;;;;;;3.87;89.07;101882.57;1784243;79;21707;-70
2021/10/03 01:27:30;;;;;;;30.08;24.75;;;;;;;3.87;89.07;101885.22;1760205;78;21051;-69
2021/10/03 01:29:57;;;;;;;29.70;23.65;;;;;;;3.86;89.00;101878.80;1762437;79;21050;-70
2021/10/03 01:32:23;;;;;;;32.20;24.18;;;;;;;3.83;88.94;101877.33;1784473;78;21045;-70
2021/10/03 01:34:50;;;;;;;30.95;24.35;;;;;;;3.80;88.86;101873.73;1780526;79;21527;-70
2021/10/03 01:37:17;;;;;;;29.70;22.85;;;;;;;3.78;88.75;101876.22;1787466;78;21119;-69
2021/10/03 01:39:44;;;;;;;28.42;23.22;;;;;;;3.75;88.71;101878.24;1816900;77;20986;-70
2021/10/03 01:42:11;;;;;;;31.07;23.15;;;;;;;3.70;88.61;101876.63;1809601;77;20990;-69
2021/10/03 01:44:38;;;;;;;31.87;23.77;;;;;;;3.65;88.58;101879.47;1776164;78;21087;-69
2021/10/03 01:47:04;;;;;;;29.32;22.65;;;;;;;3.61;88.67;101882.16;1786354;78;21521;-69
2021/10/03 01:49:31;;;;;;;30.57;23.30;;;;;;;3.57;88.74;101879.05;1794186;78;21129;-69
2021/10/03 01:51:58;;;;;;;28.10;22.62;;;;;;;3.52;88.70;101885.34;1793239;78;21069;-69
2021/10/03 01:54:25;;;;;;;28.20;22.50;;;;;;;3.49;88.70;101885.73;1793648;78;21034;-70
2021/10/03 01:56:52;;;;;;;31.37;23.32;;;;;;;3.43;88.64;101880.66;1778941;78;21066;-69
2021/10/03 01:59:19;;;;;;;27.48;22.50;;;;;;;3.40;88.63;101886.79;1818232;78;21462;-70
2021/10/03 02:01:47;;;;;;;31.20;24.23;;;;;;;3.36;88.58;101886.33;1819186;77;21335;-70
2021/10/03 02:04:16;;;;;;;30.72;23.25;;;;;;;3.34;88.56;101886.98;1824452;77;21057;-70
2021/10/03 02:06:47;;;;;;;28.75;22.93;;;;;;;3.32;88.51;101881.55;1818685;78;21065;-69
2021/10/03 02:09:15;;;;;;;29.82;23.47;;;;;;;3.29;88.46;101884.04;1787070;78;21026;-70
2021/10/03 02:11:47;;;;;;;28.40;22.67;;;;;;;3.26;88.44;101885.23;1783686;79;20986;-69
2021/10/03 02:14:14;;;;;;;29.07;22.40;;;;;;;3.23;88.41;101884.77;1780186;78;21141;-70
2021/10/03 02:16:40;;;;;;;31.20;24.30;;;;;;;3.21;88.37;101886.25;1786095;78;21094;-69
2021/10/03 02:19:07;;;;;;;32.10;24.30;;;;;;;3.18;88.36;101887.09;1777874;78;21505;-70
2021/10/03 02:21:34;;;;;;;31.35;23.35;;;;;;;3.18;88.35;101891.88;1795018;78;21023;-70
2021/10/03 02:24:02;;;;;;;34.60;25.52;;;;;;;3.16;88.40;101891.72;1798981;78;21187;-70
2021/10/03 02:26:29;;;;;;;31.93;24.43;;;;;;;3.17;88.41;101894.20;1796657;78;21108;-69
2021/10/03 02:28:56;;;;;;;33.00;24.37;;;;;;;3.17;88.47;101889.42;1787264;78;21597;-70
2021/10/03 02:31:23;;;;;;;35.43;24.52;;;;;;;3.17;88.54;101886.78;1769392;80;21011;-69
2021/10/03 02:33:50;;;;;;;33.02;24.20;;;;;;;3.18;88.62;101889.73;1779322;78;20964;-70
2021/10/03 02:36:19;;;;;;;31.85;24.55;;;;;;;3.19;88.68;101888.73;1779274;78;21101;-69
2021/10/03 02:38:46;;;;;;;32.80;24.37;;;;;;;3.19;88.70;101891.37;1792587;78;21257;-70
2021/10/03 02:41:14;;;;;;;33.02;23.10;;;;;;;3.19;88.72;101886.94;1778171;78;21039;-69
2021/10/03 02:43:44;;;;;;;31.35;23.92;;;;;;;3.21;88.74;101893.35;1791506;78;20939;-70
2021/10/03 02:46:11;;;;;;;34.30;23.62;;;;;;;3.21;88.77;101888.07;1778861;78;21104;-69
2021/10/03 02:48:38;;;;;;;31.02;23.30;;;;;;;3.22;88.82;101895.80;1798397;78;21022;-69
2021/10/03 02:51:05;;;;;;;33.15;23.30;;;;;;;3.22;88.87;101893.66;1793771;78;21097;-69
2021/10/03 02:53:33;;;;;;;32.53;23.95;;;;;;;3.22;88.92;101895.80;1787985;78;20935;-69
2021/10/03 02:55:59;;;;;;;28.55;22.80;;;;;;;3.22;88.91;101896.30;1796024;78;20983;-70
2021/10/03 02:58:27;;;;;;;33.88;24.52;;;;;;;3.21;88.96;101895.48;1801070;79;21023;-69
2021/10/03 03:00:54;;;;;;;33.88;24.35;;;;;;;3.21;89.02;101896.81;1780465;78;21459;-70
2021/10/03 03:03:21;;;;;;;32.00;24.32;;;;;;;3.20;89.04;101897.81;1789733;79;22133;-70
2021/10/03 03:05:48;;;;;;;31.23;24.77;;;;;;;3.20;89.05;101899.14;1780528;78;21117;-69
2021/10/03 03:08:15;;;;;;;32.05;23.32;;;;;;;3.20;89.04;101903.09;1787205;78;20999;-69
2021/10/03 03:10:42;;;;;;;33.50;24.02;;;;;;;3.18;89.05;101901.63;1793263;78;20955;-69
2021/10/03 03:13:09;;;;;;;31.33;24.20;;;;;;;3.17;89.03;101901.30;1792313;78;21050;-70
2021/10/03 03:15:35;;;;;;;33.60;24.75;;;;;;;3.17;89.07;101900.80;1788593;78;21114;-70
2021/10/03 03:18:02;;;;;;;32.10;24.00;;;;;;;3.17;89.12;101901.30;1795494;78;21050;-69
2021/10/03 03:20:29;;;;;;;30.55;24.27;;;;;;;3.15;89.13;101900.65;1793409;78;21039;-69
2021/10/03 03:22:55;;;;;;;31.02;22.87;;;;;;;3.13;89.02;101901.34;1796625;78;21062;-69
2021/10/03 03:25:22;;;;;;;32.85;25.00;;;;;;;3.10;89.02;101897.22;1776580;78;21398;-69
2021/10/03 03:27:49;;;;;;;32.17;23.77;;;;;;;3.08;89.05;101894.43;1780568;78;21958;-69
2021/10/03 03:30:16;;;;;;;31.62;23.35;;;;;;;3.06;89.07;101899.89;1789972;78;21090;-71
2021/10/03 03:32:43;;;;;;;32.83;24.15;;;;;;;3.04;88.98;101899.23;1773084;78;21023;-69
2021/10/03 03:35:10;;;;;;;29.70;22.77;;;;;;;3.02;88.97;101898.08;1776775;78;21019;-69
2021/10/03 03:37:36;;;;;;;30.12;22.37;;;;;;;2.98;88.91;101901.25;1773994;78;21042;-70
2021/10/03 03:40:06;;;;;;;30.48;21.68;;;;;;;2.94;88.87;101902.09;1794892;79;21073;-69
2021/10/03 03:42:33;;;;;;;30.45;21.77;;;;;;;2.90;88.80;101899.48;1797518;78;20995;-69
2021/10/03 03:44:59;;;;;;;27.30;21.70;;;;;;;2.86;88.79;101897.34;1784968;78;21404;-69
2021/10/03 03:47:26;;;;;;;27.17;21.60;;;;;;;2.81;88.80;101897.38;1776287;78;20999;-69
2021/10/03 03:49:53;;;;;;;27.17;20.48;;;;;;;2.78;88.81;101895.58;1776187;78;21058;-69
2021/10/03 03:52:20;;;;;;;27.25;20.00;;;;;;;2.77;88.85;101904.50;1767837;80;21469;-69
2021/10/03 03:54:47;;;;;;;25.25;19.23;;;;;;;2.76;88.91;101898.88;1781381;78;21074;-69
2021/10/03 03:57:13;;;;;;;25.80;19.12;;;;;;;2.76;88.97;101902.83;1790885;78;21082;-69
2021/10/03 03:59:41;;;;;;;25.90;18.75;;;;;;;2.77;89.00;101907.14;1793752;78;21062;-69
2021/10/03 04:02:07;;;;;;;25.65;18.90;;;;;;;2.77;89.04;101904.50;1795445;78;21525;-69
2021/10/03 04:04:34;;;;;;;25.48;18.80;;;;;;;2.76;89.08;101914.23;1784854;79;21765;-70
2021/10/03 04:07:00;;;;;;;25.72;17.70;;;;;;;2.77;89.08;101909.78;1798414;78;21019;-69
2021/10/03 04:09:26;;;;;;;26.82;18.77;;;;;;;2.76;89.06;101907.64;1791066;78;21018;-69
2021/10/03 04:11:53;;;;;;;23.05;17.95;;;;;;;2.78;89.05;101906.13;1794264;78;20975;-69
2021/10/03 04:14:20;;;;;;;23.83;18.02;;;;;;;2.77;89.07;101907.14;1791544;78;21058;-69
2021/10/03 04:16:47;;;;;;;24.55;17.95;;;;;;;2.81;89.07;101914.52;1791870;78;21130;-69
2021/10/03 04:19:13;;;;;;;23.55;17.77;;;;;;;2.84;89.09;101913.36;1790963;78;21011;-70
2021/10/03 04:21:41;;;;;;;24.45;17.90;;;;;;;2.85;89.09;101915.00;1786416;78;21462;-69
2021/10/03 04:24:08;;;;;;;22.52;17.42;;;;;;;2.87;89.13;101914.34;1800744;79;20984;-70
2021/10/03 04:26:34;;;;;;;25.43;18.67;;;;;;;2.90;89.19;101923.23;1797072;78;21003;-69
2021/10/03 04:29:01;;;;;;;26.15;16.90;;;;;;;2.92;89.21;101925.69;1774720;79;21091;-69
2021/10/03 04:31:28;;;;;;;22.25;16.80;;;;;;;2.96;89.26;101933.58;1769103;80;21003;-69
2021/10/03 04:33:57;;;;;;;23.47;16.40;;;;;;;2.98;89.30;101936.38;1792385;78;20972;-69
2021/10/03 04:36:26;;;;;;;22.22;16.67;;;;;;;3.02;89.35;101935.02;1789944;78;21012;-69
2021/10/03 04:38:52;;;;;;;22.98;16.65;;;;;;;3.09;89.41;101938.30;1781667;78;21007;-69
2021/10/03 04:41:18;;;;;;;24.55;17.42;;;;;;;3.15;89.43;101929.69;1773200;78;21196;-70
2021/10/03 04:43:45;;;;;;;22.02;16.40;;;;;;;3.20;89.43;101939.24;1798413;78;21093;-69
2021/10/03 04:46:13;;;;;;;23.35;17.17;;;;;;;3.24;89.46;101934.75;1797204;79;21057;-70
2021/10/03 04:48:40;;;;;;;22.93;17.67;;;;;;;3.31;89.48;101936.70;1792017;78;21070;-69
2021/10/03 04:51:06;;;;;;;23.47;17.67;;;;;;;3.36;89.53;101934.36;1773832;79;21023;-70
2021/10/03 04:53:34;;;;;;;23.50;18.17;;;;;;;3.41;89.61;101935.97;1783743;79;21115;-70
2021/10/03 04:56:01;;;;;;;25.30;18.30;;;;;;;3.48;89.65;101943.50;1776741;78;21137;-70
2021/10/03 04:58:28;;;;;;;22.58;17.85;;;;;;;3.56;89.70;101941.32;1796340;79;21571;-69
2021/10/03 05:00:55;;;;;;;25.90;17.80;;;;;;;3.63;89.78;101943.58;1787095;78;21066;-69
2021/10/03 05:03:23;;;;;;;23.47;18.10;;;;;;;3.71;89.88;101946.14;1775290;78;21034;-70
2021/10/03 05:05:51;;;;;;;25.12;19.30;;;;;;;3.83;89.94;101950.52;1780885;78;21537;-70
2021/10/03 05:08:19;;;;;;;26.87;20.30;;;;;;;3.92;90.02;101955.56;1798544;79;21023;-70
2021/10/03 05:10:55;;;;;;;25.35;18.30;;;;;;;4.00;90.07;101952.83;1798766;79;21022;-69
2021/10/03 05:13:34;;;;;;;27.85;20.23;;;;;;;4.09;90.11;101944.33;1791926;79;21111;-69
2021/10/03 05:16:12;;;;;;;24.98;18.60;;;;;;;4.22;90.18;101951.66;1797541;79;21048;-69
2021/10/03 05:18:50;;;;;;;26.17;18.85;;;;;;;4.31;90.25;101945.28;1798168;78;21117;-69
2021/10/03 05:21:26;;;;;;;22.37;17.35;;;;;;;4.44;90.25;101949.44;1798367;79;21470;-70
2021/10/03 05:23:53;;;;;;;22.70;17.30;;;;;;;4.53;90.21;101944.05;1794061;78;22524;-70
2021/10/03 05:26:20;;;;;;;21.33;17.15;;;;;;;4.64;90.17;101951.52;1793778;79;21020;-70
2021/10/03 05:28:46;;;;;;;20.82;16.10;;;;;;;4.74;90.10;101953.88;1798714;79;21051;-70
2021/10/03 05:31:14;;;;;;;19.73;14.68;;;;;;;4.81;90.03;101941.58;1799428;79;21523;-70
2021/10/03 05:33:40;;;;;;;25.08;18.15;;;;;;;4.88;89.95;101936.67;1790777;79;20981;-69
2021/10/03 05:36:08;;;;;;;24.32;17.12;;;;;;;4.94;89.88;101939.91;1797859;79;21075;-70
2021/10/03 05:38:36;;;;;;;24.90;18.32;;;;;;;5.03;89.87;101940.60;1798768;78;21020;-71
2021/10/03 05:41:02;;;;;;;29.55;22.37;;;;;;;5.11;89.84;101943.66;1799376;79;21532;-70
2021/10/03 05:43:29;;;;;;;38.23;30.25;;;;;;;5.18;89.80;101943.23;1797074;79;21071;-69
2021/10/03 05:45:55;;;;;;;67.97;55.70;;;;;;;5.26;89.78;101941.77;1792614;79;21557;-69
2021/10/03 05:48:22;;;;;;;56.58;48.48;;;;;;;5.34;89.78;101944.83;1796809;79;21046;-70
2021/10/03 05:50:50;;;;;;;47.03;39.03;;;;;;;5.46;89.76;101949.92;1789308;78;21158;-71
2021/10/03 05:53:17;;;;;;;41.85;33.83;;;;;;;5.57;89.67;101947.30;1794785;79;21009;-70
2021/10/03 05:55:48;;;;;;;29.70;23.60;;;;;;;5.66;89.54;101942.19;1796028;79;21065;-71
2021/10/03 05:58:25;;;;;;;29.57;22.85;;;;;;;5.77;89.37;101940.34;1792250;78;21030;-70
2021/10/03 06:00:53;;;;;;;22.98;16.15;;;;;;;5.88;89.27;101939.81;1800116;78;21049;-70
2021/10/03 06:03:20;;;;;;;20.72;16.15;;;;;;;6.00;89.11;101940.15;1793137;78;20943;-71
2021/10/03 06:05:47;;;;;;;18.50;14.33;;;;;;;6.05;88.94;101939.56;1794051;79;21052;-71
2021/10/03 06:08:16;;;;;;;18.52;14.00;;;;;;;6.15;88.87;101940.55;1800607;79;21132;-71
2021/10/03 06:10:44;;;;;;;18.95;14.05;;;;;;;6.22;88.60;101947.56;1792536;79;21058;-71
2021/10/03 06:13:12;;;;;;;15.95;12.88;;;;;;;6.30;88.50;101943.42;1800078;79;20951;-71
2021/10/03 06:15:43;;;;;;;16.35;12.40;;;;;;;6.43;88.31;101947.17;1798805;79;21003;-71
2021/10/03 06:18:08;;;;;;;17.98;13.18;;;;;;;6.54;88.14;101942.63;1799789;79;21054;-70
2021/10/03 06:20:35;;;;;;;18.73;13.40;;;;;;;6.64;87.90;101943.09;1798911;78;21108;-69
2021/10/03 06:23:10;;;;;;;17.30;13.10;;;;;;;6.75;87.70;101949.19;1790857;78;21220;-72
2021/10/03 06:25:38;;;;;;;20.75;14.13;;;;;;;6.86;87.44;101950.45;1790306;78;21055;-73
2021/10/03 06:28:07;;;;;;;17.90;13.93;;;;;;;6.98;87.08;101942.75;1794994;79;20973;-71
2021/10/03 06:30:35;;;;;;;17.48;12.85;;;;;;;7.11;86.83;101942.80;1791164;78;21541;-70
2021/10/03 06:33:04;;;;;;;17.27;12.93;;;;;;;7.25;86.56;101945.79;1788695;78;21533;-70
2021/10/03 06:35:31;;;;;;;16.25;12.70;;;;;;;7.40;86.26;101947.45;1794771;78;21113;-70
2021/10/03 06:37:58;;;;;;;15.88;12.40;;;;;;;7.54;85.98;101937.16;1791541;78;21446;-70
2021/10/03 06:40:25;;;;;;;13.78;11.00;;;;;;;7.69;85.66;101940.95;1797998;79;21434;-70
2021/10/03 06:42:52;;;;;;;13.58;10.78;;;;;;;7.83;85.16;101941.77;1798254;78;21031;-70
2021/10/03 06:45:18;;;;;;;18.15;12.65;;;;;;;7.93;84.66;101936.84;1803303;78;21093;-71
2021/10/03 06:47:45;;;;;;;18.37;14.28;;;;;;;8.06;84.25;101938.20;1786305;78;20999;-70
2021/10/03 06:50:11;;;;;;;15.93;12.15;;;;;;;8.22;83.86;101936.41;1777334;78;21034;-70
2021/10/03 06:52:38;;;;;;;18.70;13.43;;;;;;;8.38;83.38;101935.19;1777102;78;21078;-70
2021/10/03 06:55:07;;;;;;;15.70;11.50;;;;;;;8.50;82.79;101934.05;1793571;78;21475;-70
2021/10/03 06:57:35;;;;;;;17.10;12.58;;;;;;;8.62;82.17;101932.38;1790055;78;21025;-71
2021/10/03 07:00:04;;;;;;;15.48;11.78;;;;;;;8.77;81.71;101932.63;1795040;78;21042;-71
2021/10/03 07:02:31;;;;;;;16.57;12.58;;;;;;;8.92;81.30;101933.19;1790083;78;21088;-69
2021/10/03 07:04:57;;;;;;;14.98;12.23;;;;;;;9.09;80.94;101934.33;1793176;78;20996;-70
2021/10/03 07:07:24;;;;;;;16.57;11.38;;;;;;;9.24;80.30;101935.88;1793997;78;21091;-70
2021/10/03 07:09:51;;;;;;;13.83;10.98;;;;;;;9.40;79.83;101936.70;1795916;78;21157;-70
2021/10/03 07:12:18;;;;;;;15.93;11.10;;;;;;;9.54;79.45;101934.27;1797228;78;21042;-71
2021/10/03 07:14:45;;;;;;;15.25;11.33;;;;;;;9.70;78.63;101924.89;1795881;78;21594;-70
2021/10/03 07:17:12;;;;;;;15.38;11.57;;;;;;;9.88;78.22;101928.67;1793563;78;20995;-71
2021/10/03 07:19:40;;;;;;;14.50;10.63;;;;;;;10.03;77.71;101931.28;1798433;78;21036;-70
2021/10/03 07:22:08;;;;;;;14.40;10.80;;;;;;;10.21;77.02;101920.35;1795310;78;21141;-71
2021/10/03 07:24:36;;;;;;;13.75;10.72;;;;;;;10.37;76.20;101928.34;1795639;78;21518;-71
2021/10/03 07:27:05;;;;;;;14.13;10.68;;;;;;;10.52;75.48;101918.89;1798459;79;21004;-71
2021/10/03 07:29:34;;;;;;;15.30;11.22;;;;;;;10.68;74.63;101922.02;1795064;78;20981;-70
2021/10/03 07:32:01;;;;;;;13.25;9.90;;;;;;;10.84;73.73;101925.94;1799153;79;21596;-70
2021/10/03 07:34:29;;;;;;;15.45;10.70;;;;;;;10.99;72.88;101925.84;1786125;78;21555;-70
2021/10/03 07:36:56;;;;;;;14.20;10.85;;;;;;;11.13;71.96;101918.98;1798774;78;21030;-71
2021/10/03 07:39:23;;;;;;;14.78;11.25;;;;;;;11.27;71.27;101917.73;1794153;78;21101;-71
2021/10/03 07:41:51;;;;;;;15.03;11.50;;;;;;;11.43;70.60;101921.63;1775766;78;21200;-70
2021/10/03 07:44:18;;;;;;;14.30;10.57;;;;;;;11.54;69.74;101916.00;1780031;78;21276;-71
2021/10/03 07:46:45;;;;;;;12.50;9.90;;;;;;;11.66;68.92;101921.66;1796121;78;21249;-71
2021/10/03 07:49:13;;;;;;;13.10;10.20;;;;;;;11.79;68.14;101918.48;1788509;78;21312;-71
2021/10/03 07:51:40;;;;;;;13.63;10.00;;;;;;;11.89;67.25;101914.21;1799631;78;21301;-71
2021/10/03 07:54:07;;;;;;;14.03;9.30;;;;;;;12.00;66.35;101907.75;1797452;78;21147;-71
2021/10/03 07:56:36;;;;;;;12.00;8.90;;;;;;;12.14;65.14;101916.67;1800088;79;21340;-69
2021/10/03 07:59:02;;;;;;;12.87;9.47;;;;;;;12.25;64.55;101909.66;1794007;78;21171;-71
2021/10/03 08:01:29;;;;;;;13.50;10.37;;;;;;;12.40;64.23;101906.48;1792124;78;21882;-71
2021/10/03 08:03:57;;;;;;;13.40;9.90;;;;;;;12.57;64.11;101913.26;1785676;78;21241;-70
2021/10/03 08:06:27;;;;;;;13.13;9.57;;;;;;;12.74;63.86;101905.31;1782262;78;21266;-70
2021/10/03 08:08:55;;;;;;;13.43;9.07;;;;;;;12.90;63.16;101908.05;1773036;78;21164;-69
2021/10/03 08:11:22;;;;;;;11.27;8.03;;;;;;;13.04;62.21;101902.39;1772649;78;21849;-69
2021/10/03 08:13:50;;;;;;;13.00;9.80;;;;;;;13.18;61.33;101893.52;1793515;78;21268;-70
2021/10/03 08:16:21;;;;;;;13.00;9.10;;;;;;;13.30;60.81;101891.09;1788766;78;21817;-70
2021/10/03 08:18:48;;;;;;;12.30;9.23;;;;;;;13.42;60.27;101892.88;1777876;78;21247;-69
2021/10/03 08:21:15;;;;;;;11.80;9.23;;;;;;;13.53;60.36;101894.69;1791920;78;21291;-70
2021/10/03 08:23:42;;;;;;;13.27;9.37;;;;;;;13.66;59.74;101898.39;1799886;78;21256;-70
2021/10/03 08:26:08;;;;;;;13.23;9.33;;;;;;;13.79;59.13;101894.02;1792533;78;21438;-71
2021/10/03 08:28:35;;;;;;;14.13;9.60;;;;;;;13.92;58.66;101893.38;1781902;78;21364;-70
2021/10/03 08:31:02;;;;;;;12.30;9.07;;;;;;;14.01;58.07;101902.66;1783638;78;21462;-70
2021/10/03 08:33:28;;;;;;;10.90;8.13;;;;;;;14.12;57.77;101895.03;1786385;78;21383;-70
2021/10/03 08:35:55;;;;;;;12.33;8.77;;;;;;;14.25;57.30;101897.90;1784768;78;21339;-70
2021/10/03 08:38:22;;;;;;;13.63;9.03;;;;;;;14.49;56.16;101900.62;1790433;78;21378;-70
2021/10/03 08:40:50;;;;;;;12.47;8.20;;;;;;;14.60;55.86;101891.36;1790952;78;21354;-71
2021/10/03 08:43:18;;;;;;;10.03;7.10;;;;;;;14.73;55.75;101890.97;1779527;78;22779;-71
2021/10/03 08:45:46;;;;;;;11.00;7.47;;;;;;;14.73;55.75;101890.97;1777387;78;21759;-70
2021/10/03 08:48:14;;;;;;;11.87;7.30;;;;;;;14.87;55.09;101892.73;1783874;78;21718;-69
2021/10/03 08:50:44;;;;;;;8.37;6.40;;;;;;;14.99;54.96;101897.44;1793120;78;21782;-71
2021/10/03 08:53:13;;;;;;;10.73;7.13;;;;;;;15.09;53.67;101872.51;1795246;77;21669;-71
2021/10/03 08:55:41;;;;;;;10.20;6.50;;;;;;;15.17;53.62;101885.52;1803627;78;21767;-69
2021/10/03 08:58:07;;;;;;;10.13;6.47;;;;;;;15.28;52.26;101894.49;1799749;78;22190;-70
2021/10/03 09:00:47;;;;;;;8.27;5.73;;;;;;;15.37;52.24;101888.92;1787097;78;21695;-70
2021/10/03 09:03:19;;;;;;;11.77;6.60;;;;;;;15.45;51.48;101885.20;1772882;78;21848;-70
2021/10/03 09:05:50;;;;;;;7.83;5.65;;;;;;;15.59;52.60;101885.58;1783468;78;21672;-70
2021/10/03 09:08:23;;;;;;;7.80;5.70;;;;;;;15.76;51.67;101885.48;1787442;78;21168;-70
2021/10/03 09:11:00;;;;;;;9.70;5.50;;;;;;;15.88;50.49;101873.16;1776341;78;21708;-69
2021/10/03 09:13:36;;;;;;;9.67;5.57;;;;;;;15.98;50.07;101875.91;1803415;78;21703;-70
2021/10/03 09:16:14;;;;;;;8.27;5.20;;;;;;;16.07;48.82;101873.53;1781428;78;21751;-70
2021/10/03 09:18:47;;;;;;;7.90;4.67;;;;;;;16.11;48.11;101875.98;1796705;78;20987;-70
2021/10/03 09:21:36;;;;;;;8.33;5.03;;;;;;;16.17;47.84;101875.74;1789313;78;21703;-70
2021/10/03 09:24:10;;;;;;;8.40;4.60;;;;;;;16.25;47.20;101869.57;1789978;79;20936;-71
2021/10/03 09:26:41;;;;;;;6.90;4.50;;;;;;;16.42;47.01;101878.30;1800200;78;22007;-71
2021/10/03 09:29:24;;;;;;;7.80;4.13;;;;;;;16.52;47.07;101876.14;1796134;79;20990;-70
2021/10/03 09:32:12;;;;;;;4.80;3.20;;;;;;;16.62;45.69;101877.02;1802346;78;20987;-70
2021/10/03 09:34:47;;;;;;;6.50;4.03;;;;;;;16.69;42.54;101871.36;1800131;78;20999;-70
2021/10/03 09:37:29;;;;;;;6.20;3.83;;;;;;;16.71;42.21;101871.89;1797723;78;21049;-70
2021/10/03 09:40:12;;;;;;;6.20;3.70;;;;;;;16.75;41.94;101872.20;1788143;79;21590;-70
2021/10/03 09:42:39;;;;;;;7.60;3.40;;;;;;;16.82;41.87;101878.17;1783828;78;20982;-70
2021/10/03 09:45:14;;;;;;;8.20;3.97;;;;;;;16.88;41.11;101875.77;1787657;79;21010;-70
2021/10/03 09:47:44;;;;;;;7.30;4.13;;;;;;;16.96;41.54;101879.27;1781109;78;20967;-70
2021/10/03 09:50:15;;;;;;;5.43;3.20;;;;;;;17.05;41.76;101876.33;1786968;78;21094;-70
2021/10/03 09:52:41;;;;;;;5.53;3.87;;;;;;;17.14;40.85;101871.19;1784626;78;21072;-70
2021/10/03 09:55:13;;;;;;;7.47;5.60;;;;;;;17.17;41.21;101867.14;1779230;78;21042;-70
2021/10/03 09:57:42;;;;;;;12.83;9.43;;;;;;;17.17;40.46;101874.70;1794168;78;21542;-71
2021/10/03 10:00:11;;;;;;;11.63;8.60;;;;;;;17.18;40.71;101876.34;1785179;78;21061;-71
2021/10/03 10:02:40;;;;;;;9.20;5.40;;;;;;;17.23;40.75;101867.42;1798116;78;21608;-70
2021/10/03 10:05:08;;;;;;;10.70;7.33;;;;;;;17.28;40.16;101872.84;1798915;78;21310;-70
2021/10/03 10:07:35;;;;;;;10.73;6.40;;;;;;;17.26;40.29;101862.83;1789855;78;21042;-70
2021/10/03 10:10:05;;;;;;;7.73;5.03;;;;;;;17.24;39.93;101853.66;1775396;78;21014;-70
2021/10/03 10:12:34;;;;;;;7.70;4.30;;;;;;;17.26;40.37;101860.94;1775111;78;21038;-70
2021/10/03 10:15:04;;;;;;;6.43;4.07;;;;;;;17.32;40.42;101852.31;1768708;78;20995;-70
2021/10/03 10:17:38;;;;;;;7.03;3.83;;;;;;;17.32;40.57;101849.61;1778401;78;20990;-69
2021/10/03 10:20:27;;;;;;;5.20;3.40;;;;;;;17.37;40.46;101846.89;1799098;78;20999;-69
2021/10/03 10:23:06;;;;;;;6.63;3.60;;;;;;;17.43;40.05;101852.56;1794154;78;21431;-69
2021/10/03 10:25:53;;;;;;;6.77;3.63;;;;;;;17.45;39.46;101846.36;1791656;78;21066;-70
2021/10/03 10:28:24;;;;;;;7.27;4.00;;;;;;;17.46;39.87;101842.56;1781381;78;21415;-69
2021/10/03 10:31:12;;;;;;;7.08;4.22;;;;;;;17.51;39.86;101838.52;1782423;78;22058;-70
2021/10/03 10:34:04;;;;;;;5.00;3.63;;;;;;;17.55;39.06;101836.89;1782159;78;20935;-69
2021/10/03 10:36:34;;;;;;;;;;;;;;;17.58;39.62;101839.59;1790289;78;20999;-69
2021/10/03 10:39:14;;;;;;;6.90;3.73;;;;;;;17.64;39.12;101836.35;1789251;78;20204;-69
2021/10/03 10:41:45;;;;;;;;;;;;;;;17.64;39.06;101837.70;1783565;78;21054;-70
2021/10/03 10:44:32;;;;;;;4.60;3.43;;;;;;;17.64;39.05;101838.51;1784216;78;21136;-69
2021/10/03 10:47:10;;;;;;;4.50;3.17;;;;;;;17.67;38.22;101830.37;1780041;78;21007;-69
2021/10/03 10:49:51;;;;;;;6.73;3.67;;;;;;;17.69;38.43;101834.42;1786797;78;21034;-71
2021/10/03 10:52:24;;;;;;;6.33;3.37;;;;;;;17.66;38.76;101839.02;1788268;78;21038;-69
2021/10/03 10:55:05;;;;;;;6.33;3.67;;;;;;;17.59;38.35;101833.91;1769152;80;21047;-70
2021/10/03 10:57:33;;;;;;;;;;;;;;;17.51;38.62;101835.81;1782919;78;21155;-69
2021/10/03 11:00:20;;;;;;;6.57;3.57;;;;;;;17.50;39.00;101828.77;1774277;78;20171;-70
2021/10/03 11:02:59;;;;;;;7.10;3.77;;;;;;;17.56;39.41;101826.88;1791893;79;21533;-69
2021/10/03 11:05:46;;;;;;;7.33;4.20;;;;;;;17.64;39.27;101818.79;1773730;78;21569;-70
2021/10/03 11:08:20;;;;;;;8.63;5.37;;;;;;;17.68;39.39;101819.30;1770028;78;21526;-69
2021/10/03 11:11:09;;;;;;;6.47;4.40;;;;;;;17.73;39.51;101815.77;1770060;78;21085;-69
2021/10/03 11:13:49;;;;;;;6.93;4.30;;;;;;;17.79;39.37;101820.11;1775021;78;21085;-70
2021/10/03 11:16:34;;;;;;;7.53;4.22;;;;;;;17.87;39.58;101816.86;1783655;78;20983;-68
2021/10/03 11:19:10;;;;;;;8.10;4.60;;;;;;;17.90;39.35;101814.97;1779104;78;21033;-69
2021/10/03 11:21:54;;;;;;;8.97;4.90;;;;;;;17.90;39.54;101812.26;1788189;78;21555;-69
2021/10/03 11:24:31;;;;;;;5.60;3.80;;;;;;;17.84;38.34;101812.00;1774152;78;21160;-69
2021/10/03 11:27:00;;;;;;;9.70;4.90;;;;;;;17.81;38.50;101803.09;1769063;78;21129;-70
2021/10/03 11:29:31;;;;;;;6.07;4.07;;;;;;;17.81;39.09;101809.84;1769859;78;21832;-69
2021/10/03 11:32:02;;;;;;;8.23;4.08;;;;;;;17.86;38.78;101802.25;1817592;77;21995;-69